Time;durP1;ratioP1;P1;durP2;ratioP2;P2;SDS_P1;SDS_P2;PMS_P1;PMS_P2;Temp;Humidity;BMP_temperature;BMP_pressure;BME280_temperature;BME280_humidity;BME280_pressure;Samples;Min_cycle;Max_cycle;Signal;HPM_P1;HPM_P2
2024/01/15 00:03:01;;;;;;;43.85;17.88;;;;;;;0.61;100.00;100115.59;6134908;23;20009;-89
2024/01/15 00:05:27;;;;;;;46.72;16.73;;;;;;;0.58;100.00;100107.69;6159565;23;20001;-88
2024/01/15 00:07:53;;;;;;;43.75;18.08;;;;;;;0.60;100.00;100095.88;6135215;23;20016;-88
2024/01/15 00:10:18;;;;;;;43.88;17.98;;;;;;;0.61;100.00;100094.03;6135290;23;20009;-89
2024/01/15 00:12:43;;;;;;;51.78;18.35;;;;;;;0.59;100.00;100090.56;6135426;23;20020;-88
2024/01/15 00:15:09;;;;;;;47.25;18.27;;;;;;;0.62;100.00;100091.28;6135359;23;20009;-88
2024/01/15 00:17:34;;;;;;;42.28;17.35;;;;;;;0.63;100.00;100092.16;6135093;23;20442;-88
2024/01/15 00:20:00;;;;;;;47.58;17.38;;;;;;;0.63;100.00;100089.47;6135297;23;20088;-88
2024/01/15 00:22:27;;;;;;;43.58;16.23;;;;;;;0.60;100.00;100090.47;6135329;23;20108;-88
2024/01/15 00:24:52;;;;;;;44.13;16.95;;;;;;;0.62;100.00;100082.31;6160188;23;20100;-88
2024/01/15 00:27:17;;;;;;;39.67;16.15;;;;;;;0.59;100.00;100069.91;6185562;23;20009;-89
2024/01/15 00:29:43;;;;;;;52.72;18.30;;;;;;;0.57;100.00;100066.41;6139641;23;20434;-89
2024/01/15 00:32:08;;;;;;;38.33;15.48;;;;;;;0.58;100.00;100064.59;6135483;23;20012;-88
2024/01/15 00:34:34;;;;;;;48.67;19.05;;;;;;;0.58;100.00;100062.75;6135811;23;20009;-88
2024/01/15 00:54:08;;;;;;;38.10;14.98;;;;;;;0.57;100.00;100052.06;5008592;28;20082;-90
2024/01/15 00:56:34;;;;;;;36.22;15.30;;;;;;;0.58;100.00;100051.13;5007399;28;20113;-90
2024/01/15 00:59:00;;;;;;;35.65;14.35;;;;;;;0.52;100.00;100047.78;4991371;28;20038;-90
2024/01/15 01:01:25;;;;;;;36.35;14.90;;;;;;;0.55;100.00;100039.53;4990878;28;20505;-89
2024/01/15 01:03:51;;;;;;;40.45;15.10;;;;;;;0.55;100.00;100041.38;5008392;28;20026;-91
2024/01/15 01:06:17;;;;;;;39.45;15.45;;;;;;;0.53;100.00;100033.38;5009340;28;20107;-90
2024/01/15 01:08:46;;;;;;;36.67;13.93;;;;;;;0.52;100.00;100031.59;5024224;28;20069;-91
2024/01/15 01:11:15;;;;;;;39.60;15.23;;;;;;;0.60;100.00;100030.38;4991220;28;20022;-90
2024/01/15 01:13:42;;;;;;;34.38;13.93;;;;;;;0.57;100.00;100038.59;5008229;28;20480;-90
2024/01/15 01:16:08;;;;;;;30.17;13.90;;;;;;;0.58;100.00;100035.84;4991197;28;20022;-90
2024/01/15 01:18:33;;;;;;;36.08;13.20;;;;;;;0.51;100.00;100031.72;5007514;28;20049;-91
2024/01/15 01:20:59;;;;;;;30.42;11.68;;;;;;;0.50;100.00;100028.13;5007399;28;20125;-91
2024/01/15 01:23:24;;;;;;;29.70;11.00;;;;;;;0.47;100.00;100025.59;4990936;28;20048;-91
2024/01/15 01:25:50;;;;;;;25.17;10.30;;;;;;;0.47;100.00;100027.41;5007254;28;20030;-91
2024/01/15 01:28:16;;;;;;;28.65;10.02;;;;;;;0.45;100.00;100024.81;4990647;28;20041;-91
2024/01/15 01:30:42;;;;;;;21.33;8.00;;;;;;;0.45;100.00;100024.81;5007420;28;20050;-91
2024/01/15 01:33:07;;;;;;;24.98;8.95;;;;;;;0.45;100.00;100027.50;4990345;28;20034;-90
2024/01/15 01:35:34;;;;;;;16.17;7.55;;;;;;;0.46;100.00;100028.38;4990601;28;20518;-90
2024/01/15 01:37:59;;;;;;;19.20;7.05;;;;;;;0.45;100.00;100030.19;4990858;28;20090;-91
2024/01/15 01:40:26;;;;;;;20.33;7.35;;;;;;;0.43;100.00;100029.41;4974896;28;20132;-91
2024/01/15 01:42:51;;;;;;;15.40;6.30;;;;;;;0.45;100.00;100027.50;4975227;28;20030;-91
2024/01/15 01:45:18;;;;;;;11.20;5.20;;;;;;;0.46;100.00;100033.75;4974675;28;20027;-90
2024/01/15 01:47:43;;;;;;;16.67;4.63;;;;;;;0.45;100.00;100037.41;4966640;28;20488;-90
2024/01/15 01:50:09;;;;;;;9.35;4.35;;;;;;;0.51;100.00;100037.09;4961525;28;20030;-91
2024/01/15 01:52:36;;;;;;;10.63;3.85;;;;;;;0.52;100.00;100042.38;4977328;28;20495;-90
2024/01/15 01:55:03;;;;;;;12.70;4.18;;;;;;;0.48;100.00;100038.13;4994011;28;20117;-91
2024/01/15 01:57:31;;;;;;;10.88;2.80;;;;;;;0.56;100.00;100032.34;4993416;28;20030;-91
2024/01/15 01:59:58;;;;;;;10.60;3.88;;;;;;;0.54;100.00;100039.63;4977546;28;20058;-91
2024/01/15 02:02:24;;;;;;;9.65;3.55;;;;;;;0.52;100.00;100036.13;4977671;28;20035;-90
2024/01/15 02:04:50;;;;;;;8.95;3.92;;;;;;;0.55;100.00;100036.84;4978036;28;20030;-91
2024/01/15 02:07:17;;;;;;;9.07;3.53;;;;;;;0.48;100.00;100029.19;4961407;28;20052;-91
2024/01/15 02:09:46;;;;;;;8.73;3.33;;;;;;;0.48;100.00;100037.25;4977905;28;20038;-90
2024/01/15 02:12:13;;;;;;;10.75;4.18;;;;;;;0.45;100.00;100034.72;4989080;28;20537;-90
2024/01/15 02:14:39;;;;;;;11.05;3.83;;;;;;;0.44;100.00;100035.66;4979251;28;20072;-90
2024/01/15 02:17:06;;;;;;;11.30;4.35;;;;;;;0.44;100.00;100033.81;4964032;28;20031;-90
2024/01/15 02:19:32;;;;;;;9.93;4.00;;;;;;;0.38;100.00;100035.97;4980012;28;20063;-90
2024/01/15 02:21:58;;;;;;;9.05;4.05;;;;;;;0.41;100.00;100033.09;4978168;28;20034;-90
2024/01/15 02:24:23;;;;;;;8.00;5.05;;;;;;;0.42;100.00;100035.72;4960766;28;20069;-90
2024/01/15 02:26:49;;;;;;;12.68;4.95;;;;;;;0.44;100.00;100036.50;4976815;28;20023;-91
2024/01/15 02:29:15;;;;;;;12.15;5.07;;;;;;;0.41;100.00;100036.69;4960797;28;20172;-91
2024/01/15 02:31:43;;;;;;;12.15;4.63;;;;;;;0.43;100.00;100034.78;4993515;28;20050;-91
2024/01/15 02:34:09;;;;;;;8.80;5.05;;;;;;;0.46;100.00;100040.03;4961339;28;20034;-91
2024/01/15 02:36:34;;;;;;;10.52;4.88;;;;;;;0.49;100.00;100030.91;4976838;28;20050;-91
2024/01/15 02:39:00;;;;;;;17.85;5.95;;;;;;;0.48;100.00;100027.34;4961088;28;20098;-91
2024/01/15 02:41:25;;;;;;;12.15;5.80;;;;;;;0.55;100.00;100033.28;4961337;28;20038;-91
2024/01/15 02:43:51;;;;;;;14.20;6.00;;;;;;;0.52;100.00;100028.91;4992724;28;20564;-91
2024/01/15 02:46:16;;;;;;;18.85;6.10;;;;;;;0.52;100.00;100026.22;4960827;28;20490;-91
2024/01/15 02:48:42;;;;;;;19.02;6.55;;;;;;;0.45;100.00;100029.34;4993657;28;20022;-90
2024/01/15 02:51:09;;;;;;;13.43;6.35;;;;;;;0.42;100.00;100022.25;4976355;28;20027;-90
2024/01/15 02:53:36;;;;;;;11.90;5.90;;;;;;;0.41;100.00;100025.94;4976713;28;20030;-89
2024/01/15 02:56:01;;;;;;;13.70;6.55;;;;;;;0.32;100.00;100024.56;4992286;28;20026;-91
2024/01/15 02:58:28;;;;;;;20.60;6.75;;;;;;;0.35;100.00;100020.84;4991797;28;20037;-90
2024/01/15 03:00:53;;;;;;;11.60;6.35;;;;;;;0.29;100.00;100021.16;4962811;28;20031;-90
2024/01/15 03:03:19;;;;;;;21.73;6.35;;;;;;;0.31;100.00;100027.31;4978183;28;20095;-90
2024/01/15 03:05:44;;;;;;;16.83;5.75;;;;;;;0.38;100.00;100031.47;4960759;28;20175;-90
2024/01/15 03:08:09;;;;;;;13.77;6.03;;;;;;;0.29;100.00;100029.22;4961203;28;20035;-91
2024/01/15 03:10:35;;;;;;;13.05;6.22;;;;;;;0.30;100.00;100028.28;4977474;28;20034;-91
2024/01/15 03:13:00;;;;;;;11.98;5.32;;;;;;;0.21;100.00;100028.72;4960264;28;20030;-91
2024/01/15 03:15:26;;;;;;;16.20;5.88;;;;;;;0.19;100.00;100026.13;4960344;28;20026;-90
2024/01/15 03:17:51;;;;;;;13.45;6.15;;;;;;;0.20;100.00;100024.28;4976212;28;20122;-91
2024/01/15 03:20:17;;;;;;;12.98;4.93;;;;;;;0.22;100.00;100030.50;4959899;28;20050;-91
2024/01/15 03:22:43;;;;;;;12.85;4.47;;;;;;;0.18;100.00;100038.72;4993933;28;20046;-91
2024/01/15 03:25:08;;;;;;;12.65;4.97;;;;;;;0.20;100.00;100026.97;4960037;28;20034;-90
2024/01/15 03:27:34;;;;;;;13.02;4.60;;;;;;;0.12;100.00;100036.31;4960443;28;20035;-91
2024/01/15 03:29:59;;;;;;;11.23;4.72;;;;;;;0.16;100.00;100042.41;4975927;28;20088;-91
2024/01/15 03:32:25;;;;;;;9.73;3.67;;;;;;;0.22;100.00;100043.94;4975886;28;20049;-91
2024/01/15 03:34:52;;;;;;;10.50;4.20;;;;;;;0.23;100.00;100040.28;4960328;28;20061;-91
2024/01/15 03:37:18;;;;;;;12.13;3.95;;;;;;;0.17;100.00;100038.78;4993706;28;20046;-91
2024/01/15 03:39:43;;;;;;;8.38;3.42;;;;;;;0.17;100.00;100031.56;4959903;28;20034;-91
2024/01/15 03:42:09;;;;;;;6.70;3.30;;;;;;;0.15;100.00;100019.16;4976093;28;20034;-92
2024/01/15 03:44:34;;;;;;;5.75;3.08;;;;;;;0.19;100.00;100015.34;4959862;28;20129;-91
2024/01/15 03:47:00;;;;;;;6.88;3.25;;;;;;;0.17;100.00;100011.88;4959960;28;20030;-91
2024/01/15 03:49:26;;;;;;;8.75;3.42;;;;;;;0.10;100.00;99997.84;4960207;28;20029;-91
2024/01/15 03:51:51;;;;;;;9.07;3.17;;;;;;;0.20;100.00;100009.03;4976032;28;20117;-91
2024/01/15 03:54:16;;;;;;;8.43;3.55;;;;;;;0.15;100.00;100001.19;4961438;28;20034;-91
2024/01/15 03:56:43;;;;;;;8.00;3.10;;;;;;;0.18;100.00;99997.44;4961185;28;20107;-91
2024/01/15 03:59:09;;;;;;;9.73;2.78;;;;;;;0.16;100.00;100002.03;4977211;28;20034;-91
2024/01/15 04:01:36;;;;;;;7.60;3.67;;;;;;;0.16;100.00;100000.25;4976062;28;20041;-91
2024/01/15 04:04:02;;;;;;;6.00;3.42;;;;;;;0.21;100.00;99999.13;4960282;28;20084;-91
2024/01/15 04:06:28;;;;;;;7.15;3.55;;;;;;;0.14;100.00;99994.03;4962714;28;20022;-91
2024/01/15 04:08:53;;;;;;;5.72;3.63;;;;;;;0.17;100.00;99993.03;4982755;28;20034;-92
2024/01/15 04:11:18;;;;;;;8.57;3.78;;;;;;;0.23;100.00;99991.84;4965853;28;20031;-90
2024/01/15 04:13:44;;;;;;;9.45;3.92;;;;;;;0.21;100.00;99991.06;4980746;28;20027;-90
2024/01/15 04:16:10;;;;;;;7.88;3.63;;;;;;;0.29;100.00;99991.53;4964056;28;20030;-91
2024/01/15 04:18:35;;;;;;;14.15;4.78;;;;;;;0.24;100.00;99983.69;4961994;28;20510;-91
2024/01/15 04:21:01;;;;;;;15.80;3.97;;;;;;;0.35;100.00;99986.72;4959718;28;20113;-92
2024/01/15 04:23:26;;;;;;;11.60;4.50;;;;;;;0.38;100.00;99991.06;4975531;28;20105;-91
2024/01/15 04:25:52;;;;;;;7.20;4.15;;;;;;;0.40;100.00;99981.09;4959149;28;20113;-91
2024/01/15 04:28:17;;;;;;;11.63;3.85;;;;;;;0.37;100.00;99970.47;4975211;28;20479;-91
2024/01/15 04:30:42;;;;;;;10.55;4.05;;;;;;;0.44;100.00;99973.72;4991483;28;20030;-89
2024/01/15 04:33:08;;;;;;;7.22;2.85;;;;;;;0.52;100.00;99972.38;4975169;28;20033;-90
2024/01/15 04:35:34;;;;;;;5.78;3.33;;;;;;;0.54;100.00;99970.47;4958975;28;20507;-91
2024/01/15 04:37:59;;;;;;;11.98;2.95;;;;;;;0.55;100.00;99972.22;4975005;28;20038;-90
2024/01/15 04:40:27;;;;;;;7.10;2.92;;;;;;;0.63;100.00;99960.19;4975156;28;20045;-90
2024/01/15 04:42:53;;;;;;;10.73;2.58;;;;;;;0.70;100.00;99967.84;4959605;28;20542;-90
2024/01/15 04:45:19;;;;;;;4.22;1.88;;;;;;;0.71;100.00;99966.03;4974909;28;20029;-90
2024/01/15 04:47:45;;;;;;;6.32;1.98;;;;;;;0.77;100.00;99954.03;4958831;28;20132;-90
2024/01/15 04:50:10;;;;;;;5.78;2.05;;;;;;;0.79;100.00;99965.59;4959188;28;20031;-90
2024/01/15 04:52:35;;;;;;;5.28;1.65;;;;;;;0.78;100.00;99961.19;4959043;28;20035;-91
2024/01/15 04:55:01;;;;;;;8.00;1.55;;;;;;;0.80;100.00;99959.28;4958858;28;20145;-91
2024/01/15 04:57:26;;;;;;;3.70;1.40;;;;;;;0.83;100.00;99957.28;4958951;28;20373;-90
2024/01/15 04:59:51;;;;;;;2.80;1.25;;;;;;;0.83;100.00;99951.91;4960309;28;20042;-90
2024/01/15 05:02:17;;;;;;;5.82;1.40;;;;;;;0.82;100.00;99946.59;4960867;28;20054;-91
2024/01/15 05:04:42;;;;;;;8.07;1.42;;;;;;;0.82;100.00;99951.97;4961388;28;20026;-90
2024/01/15 05:07:08;;;;;;;9.35;1.80;;;;;;;0.86;100.00;99953.56;4959709;28;20026;-91
2024/01/15 05:09:33;;;;;;;11.25;1.30;;;;;;;0.87;100.00;99956.19;4958725;28;20026;-90
2024/01/15 05:11:59;;;;;;;2.50;0.95;;;;;;;0.83;100.00;99953.72;4958636;28;20030;-91
2024/01/15 05:14:24;;;;;;;2.33;0.60;;;;;;;0.83;100.00;99951.91;4958809;28;20026;-90
2024/01/15 05:16:50;;;;;;;6.10;0.98;;;;;;;0.85;100.00;99954.50;4959132;28;20049;-91
2024/01/15 05:19:16;;;;;;;9.25;0.82;;;;;;;0.86;100.00;99949.03;4991296;28;20419;-91
2024/01/15 05:21:42;;;;;;;8.05;0.98;;;;;;;0.95;100.00;99952.19;4958825;28;20044;-91
2024/01/15 05:24:08;;;;;;;4.70;0.88;;;;;;;0.92;100.00;99950.56;4961961;28;20027;-90
2024/01/15 05:26:33;;;;;;;2.88;0.80;;;;;;;0.91;100.00;99952.34;4977860;28;20030;-90
2024/01/15 05:28:59;;;;;;;3.90;0.60;;;;;;;0.90;100.00;99949.75;4994115;28;20498;-91
2024/01/15 05:31:24;;;;;;;1.65;0.60;;;;;;;0.79;100.00;99944.94;4977420;28;20030;-88
2024/01/15 05:33:50;;;;;;;2.80;0.40;;;;;;;0.77;100.00;99948.66;4961717;28;20080;-91
2024/01/15 05:36:15;;;;;;;1.67;0.47;;;;;;;0.76;100.00;99947.81;4961816;28;20130;-92
2024/01/15 05:38:41;;;;;;;3.15;0.60;;;;;;;0.75;100.00;99943.34;4977789;28;20034;-92
2024/01/15 05:41:07;;;;;;;1.40;0.55;;;;;;;0.77;100.00;99948.66;4962221;28;20071;-94
2024/01/15 05:43:32;;;;;;;1.85;0.60;;;;;;;0.78;100.00;99940.50;4978057;28;20087;-89
2024/01/15 05:45:58;;;;;;;3.72;0.60;;;;;;;0.75;100.00;99929.88;4977610;28;20110;-88
2024/01/15 05:48:23;;;;;;;1.70;0.50;;;;;;;0.79;100.00;99935.97;4995591;28;20361;-89
2024/01/15 05:50:48;;;;;;;1.95;0.50;;;;;;;0.77;100.00;99928.00;4977166;28;20030;-88
2024/01/15 05:53:14;;;;;;;4.22;0.70;;;;;;;0.80;100.00;99935.88;4977536;28;20042;-88
2024/01/15 05:55:40;;;;;;;1.10;0.30;;;;;;;0.85;100.00;99938.34;4960625;28;20026;-89
2024/01/15 05:58:06;;;;;;;2.53;0.60;;;;;;;0.86;100.00;99945.47;4976876;28;20072;-89
2024/01/15 06:00:33;;;;;;;2.28;0.63;;;;;;;0.79;100.00;99944.06;4976885;28;20117;-88
2024/01/15 06:03:00;;;;;;;1.48;0.70;;;;;;;0.81;100.00;99939.47;4961090;28;20038;-89
2024/01/15 06:05:25;;;;;;;1.92;0.70;;;;;;;0.73;100.00;99932.66;4993257;28;20033;-89
2024/01/15 06:07:50;;;;;;;3.97;0.82;;;;;;;0.71;100.00;99939.97;4976848;28;20034;-88
2024/01/15 06:10:16;;;;;;;1.05;0.70;;;;;;;0.70;100.00;99940.91;4960679;28;20088;-89
2024/01/15 06:12:43;;;;;;;4.47;1.00;;;;;;;0.67;100.00;99937.50;4960752;28;20074;-89
2024/01/15 06:15:09;;;;;;;2.35;0.80;;;;;;;0.63;100.00;99926.03;4976574;28;20065;-89
2024/01/15 06:17:37;;;;;;;3.15;1.02;;;;;;;0.64;100.00;99929.59;4976229;28;20050;-89
2024/01/15 06:20:03;;;;;;;1.90;1.10;;;;;;;0.64;100.00;99925.09;4993749;28;20034;-89
2024/01/15 06:22:28;;;;;;;4.68;1.00;;;;;;;0.62;100.00;99920.72;4976585;28;20026;-88
2024/01/15 06:24:55;;;;;;;4.38;1.30;;;;;;;0.58;100.00;99917.31;4960441;28;20038;-89
2024/01/15 06:27:21;;;;;;;5.88;1.98;;;;;;;0.62;100.00;99916.19;4976299;28;20027;-88
2024/01/15 06:29:49;;;;;;;5.85;1.88;;;;;;;0.57;100.00;99915.56;4976384;28;20094;-89
2024/01/15 06:32:14;;;;;;;5.07;2.30;;;;;;;0.55;100.00;99910.25;4977063;28;20146;-88
2024/01/15 06:34:40;;;;;;;4.07;2.70;;;;;;;0.59;100.00;99908.31;4960208;28;20487;-88
2024/01/15 06:37:06;;;;;;;6.32;3.45;;;;;;;0.54;100.00;99904.97;4975949;28;20051;-88
2024/01/15 06:39:31;;;;;;;11.82;3.75;;;;;;;0.48;100.00;99906.16;4991989;28;20498;-88
2024/01/15 06:41:57;;;;;;;13.50;4.50;;;;;;;0.48;100.00;99906.16;4975762;28;20030;-88
2024/01/15 06:44:22;;;;;;;9.50;4.45;;;;;;;0.39;100.00;99903.09;4959909;28;20115;-87
2024/01/15 06:46:48;;;;;;;7.65;4.60;;;;;;;0.45;100.00;99900.94;4991860;28;20395;-87
2024/01/15 06:49:13;;;;;;;8.40;4.75;;;;;;;0.44;100.00;99906.41;4976382;28;20037;-87
2024/01/15 06:51:39;;;;;;;12.80;5.68;;;;;;;0.51;100.00;99906.00;4959802;28;20038;-87
2024/01/15 06:54:04;;;;;;;6.70;4.45;;;;;;;0.53;100.00;99914.88;4992666;28;20545;-89
2024/01/15 06:56:31;;;;;;;8.88;4.22;;;;;;;0.55;100.00;99915.66;4960128;28;20041;-88
2024/01/15 06:58:57;;;;;;;12.50;4.47;;;;;;;0.61;100.00;99913.56;4992228;28;20048;-89
2024/01/15 07:01:22;;;;;;;9.95;4.35;;;;;;;0.70;100.00;99915.78;4991931;28;20140;-89
2024/01/15 07:03:48;;;;;;;13.18;4.00;;;;;;;0.72;100.00;99914.78;4976135;28;20125;-89
2024/01/15 07:06:13;;;;;;;6.65;3.28;;;;;;;0.75;100.00;99912.84;4975770;28;20027;-88
2024/01/15 07:08:40;;;;;;;6.00;2.90;;;;;;;0.76;100.00;99910.09;4992084;28;20061;-89
2024/01/15 07:11:06;;;;;;;5.88;2.70;;;;;;;0.76;100.00;99903.84;4992066;28;20076;-88
2024/01/15 07:13:32;;;;;;;4.47;2.30;;;;;;;0.77;100.00;99900.16;4976226;28;20434;-89
2024/01/15 07:15:57;;;;;;;12.90;2.92;;;;;;;0.77;100.00;99897.47;4975848;28;20062;-89
2024/01/15 07:18:25;;;;;;;4.95;3.22;;;;;;;0.77;100.00;99895.66;4960160;28;20059;-89
2024/01/15 07:20:50;;;;;;;7.63;3.50;;;;;;;0.81;100.00;99896.38;4976174;28;20088;-89
2024/01/15 07:23:17;;;;;;;7.72;3.35;;;;;;;0.70;100.00;99892.41;4975518;28;20407;-89
2024/01/15 07:25:42;;;;;;;9.98;3.85;;;;;;;0.76;100.00;99898.44;4992100;28;20525;-88
2024/01/15 07:28:08;;;;;;;6.15;3.65;;;;;;;0.76;100.00;99904.69;4976008;28;20035;-89
2024/01/15 07:30:33;;;;;;;5.43;3.38;;;;;;;0.75;100.00;99907.47;4959369;28;20030;-89
2024/01/15 07:32:58;;;;;;;11.30;4.20;;;;;;;0.72;100.00;99909.38;4975865;28;20027;-89
2024/01/15 07:35:24;;;;;;;6.45;3.88;;;;;;;0.71;100.00;99920.25;4975116;28;20534;-89
2024/01/15 07:37:50;;;;;;;5.32;3.85;;;;;;;0.71;100.00;99906.78;4991521;28;20041;-88
2024/01/15 07:40:16;;;;;;;5.13;4.07;;;;;;;0.68;100.00;99912.31;4991412;28;20079;-89
2024/01/15 07:42:42;;;;;;;5.25;4.25;;;;;;;0.61;100.00;99908.19;4976008;28;20502;-89
2024/01/15 07:45:09;;;;;;;6.78;4.35;;;;;;;0.59;100.00;99912.78;4991075;28;20033;-89
2024/01/15 07:47:34;;;;;;;6.57;4.10;;;;;;;0.61;100.00;99916.28;4992440;28;20104;-89
2024/01/15 07:49:59;;;;;;;5.60;4.25;;;;;;;0.54;100.00;99905.84;4959093;28;20054;-89
2024/01/15 07:52:25;;;;;;;6.60;3.75;;;;;;;0.54;100.00;99908.53;4991385;28;20084;-89
2024/01/15 07:54:50;;;;;;;4.97;3.90;;;;;;;0.55;100.00;99917.47;4959294;28;20034;-89
2024/01/15 07:57:16;;;;;;;4.07;3.45;;;;;;;0.52;100.00;99926.59;4959104;28;20425;-88
2024/01/15 07:59:41;;;;;;;6.28;3.88;;;;;;;0.50;100.00;99925.78;4975333;28;20038;-89
2024/01/15 08:02:08;;;;;;;4.72;3.72;;;;;;;0.55;100.00;99915.66;4959083;28;20054;-91
2024/01/15 08:04:33;;;;;;;4.38;3.35;;;;;;;0.59;100.00;99927.16;4959390;28;20044;-88
2024/01/15 08:06:58;;;;;;;4.10;3.08;;;;;;;0.56;100.00;99930.00;4974682;28;20117;-87
2024/01/15 08:09:24;;;;;;;4.13;2.90;;;;;;;0.57;100.00;99937.13;4991036;28;20418;-89
2024/01/15 08:11:50;;;;;;;5.88;2.70;;;;;;;0.56;100.00;99927.31;4991766;28;20023;-90
2024/01/15 08:14:17;;;;;;;4.28;2.65;;;;;;;0.53;100.00;99930.16;4975150;28;20057;-91
2024/01/15 08:16:43;;;;;;;2.63;2.35;;;;;;;0.57;100.00;99936.25;4992448;28;20040;-92
2024/01/15 08:19:09;;;;;;;4.88;2.92;;;;;;;0.52;100.00;99934.66;4992386;28;20035;-93
2024/01/15 08:21:35;;;;;;;4.53;3.38;;;;;;;0.55;100.00;99939.88;4992887;28;20038;-90
2024/01/15 08:24:02;;;;;;;3.60;2.60;;;;;;;0.54;100.00;99937.28;4959995;28;20057;-94
2024/01/15 08:26:29;;;;;;;3.72;2.80;;;;;;;0.61;100.00;99927.03;4975632;28;20079;-92
2024/01/15 08:28:55;;;;;;;5.93;3.42;;;;;;;0.60;100.00;99936.09;4992746;28;20071;-94
2024/01/15 08:31:20;;;;;;;3.15;2.78;;;;;;;0.62;100.00;99936.88;4992145;28;20121;-94
2024/01/15 08:33:47;;;;;;;4.60;3.30;;;;;;;0.67;100.00;99942.88;4960870;28;20103;-94
2024/01/15 08:36:13;;;;;;;6.72;4.10;;;;;;;0.73;100.00;99950.66;4960185;28;20054;-94
2024/01/15 08:38:39;;;;;;;4.93;3.90;;;;;;;0.75;100.00;99951.44;4991933;28;20027;-90
2024/01/15 08:41:04;;;;;;;4.55;4.10;;;;;;;0.68;100.00;99950.88;4959665;28;20034;-93
2024/01/15 08:43:32;;;;;;;4.35;3.90;;;;;;;0.58;100.00;99946.09;4959456;28;20038;-92
2024/01/15 08:45:59;;;;;;;6.72;4.53;;;;;;;0.65;100.00;99966.34;4976138;28;20035;-89
2024/01/15 08:48:27;;;;;;;5.35;4.60;;;;;;;0.57;100.00;99955.97;4975489;28;20053;-92
2024/01/15 08:50:53;;;;;;;5.07;4.38;;;;;;;0.54;100.00;99964.22;4975225;28;20396;-89
2024/01/15 08:53:18;;;;;;;6.68;4.53;;;;;;;0.51;100.00;99949.09;4975240;28;20537;-90
2024/01/15 08:55:44;;;;;;;4.82;4.30;;;;;;;0.49;100.00;99966.28;4975585;28;20035;-91
2024/01/15 08:58:10;;;;;;;5.43;4.00;;;;;;;0.49;100.00;99969.84;4992821;28;20068;-86
2024/01/15 09:00:35;;;;;;;5.78;4.13;;;;;;;0.53;100.00;99968.72;4993521;28;20052;-88
2024/01/15 09:03:00;;;;;;;5.65;3.80;;;;;;;0.60;100.00;99965.72;4993905;28;20086;-89
2024/01/15 09:05:26;;;;;;;7.10;4.53;;;;;;;0.62;100.00;99959.28;4962915;28;20031;-89
2024/01/15 09:07:53;;;;;;;4.82;4.43;;;;;;;0.67;100.00;99959.94;4977949;28;20030;-90
2024/01/15 09:10:20;;;;;;;5.03;4.53;;;;;;;0.72;100.00;99965.06;4978174;28;20034;-89
2024/01/15 09:12:46;;;;;;;6.28;4.38;;;;;;;0.73;100.00;99962.28;4994408;28;20079;-90
2024/01/15 09:15:11;;;;;;;5.97;4.95;;;;;;;0.75;100.00;99975.69;4993814;28;20030;-89
2024/01/15 09:17:37;;;;;;;7.13;5.10;;;;;;;0.74;100.00;99973.97;4977629;28;20030;-87
2024/01/15 09:20:05;;;;;;;5.20;4.20;;;;;;;0.71;100.00;99974.13;4993160;28;20027;-87
2024/01/15 09:22:31;;;;;;;4.93;4.40;;;;;;;0.65;100.00;99969.91;4993364;28;20026;-87
2024/01/15 09:24:57;;;;;;;6.35;4.78;;;;;;;0.67;100.00;99962.63;4994406;28;20114;-86
2024/01/15 09:27:25;;;;;;;3.88;3.55;;;;;;;0.65;100.00;99969.91;4992773;28;20460;-86
2024/01/15 09:29:52;;;;;;;7.05;4.45;;;;;;;0.72;100.00;99973.16;4976958;28;20068;-87
2024/01/15 09:32:18;;;;;;;5.35;4.70;;;;;;;0.70;100.00;99964.28;4976723;28;20084;-86
2024/01/15 09:34:46;;;;;;;6.70;4.10;;;;;;;0.75;100.00;99964.91;4993877;28;20041;-86
2024/01/15 09:37:11;;;;;;;4.35;3.95;;;;;;;0.77;100.00;99964.81;4992233;28;20083;-86
2024/01/15 09:39:38;;;;;;;5.40;3.75;;;;;;;0.79;100.00;99969.19;4992751;28;20514;-87
2024/01/15 09:42:05;;;;;;;6.82;4.20;;;;;;;0.83;100.00;99961.81;4960754;28;20133;-87
2024/01/15 09:44:31;;;;;;;4.90;3.42;;;;;;;0.83;100.00;99965.38;4961132;28;20099;-87
2024/01/15 09:46:57;;;;;;;6.30;3.08;;;;;;;0.84;100.00;99964.44;4977226;28;20030;-86
2024/01/15 09:49:23;;;;;;;4.28;2.58;;;;;;;0.89;100.00;99965.03;4993168;28;20072;-86
2024/01/15 09:51:49;;;;;;;6.10;2.65;;;;;;;0.97;100.00;99967.34;4976617;28;20434;-86
2024/01/15 09:54:17;;;;;;;6.75;2.25;;;;;;;0.97;100.00;99961.94;4992924;28;20027;-87
2024/01/15 09:56:45;;;;;;;3.90;2.13;;;;;;;1.06;100.00;99969.50;4992458;28;20117;-87
2024/01/15 09:59:16;;;;;;;5.15;2.22;;;;;;;1.13;100.00;99958.41;4992759;28;20086;-86
2024/01/15 10:01:43;;;;;;;4.82;1.50;;;;;;;1.12;100.00;99960.25;4992660;28;20038;-87
2024/01/15 10:04:09;;;;;;;3.10;1.10;;;;;;;1.13;100.00;99961.97;4993788;28;20505;-89
2024/01/15 10:06:35;;;;;;;5.50;0.88;;;;;;;1.14;100.00;99979.03;4976127;28;20068;-88
2024/01/15 10:09:01;;;;;;;2.55;0.70;;;;;;;1.08;100.00;99970.34;4976125;28;20030;-87
2024/01/15 10:11:26;;;;;;;1.67;0.60;;;;;;;1.22;100.00;99971.41;4976061;28;20407;-88
2024/01/15 10:13:53;;;;;;;3.42;0.65;;;;;;;1.24;100.00;99972.16;4960453;28;20049;-88
2024/01/15 10:16:19;;;;;;;0.80;0.50;;;;;;;1.16;100.00;99964.50;4976567;28;20090;-88
2024/01/15 10:18:45;;;;;;;2.58;0.60;;;;;;;1.15;100.00;99961.88;4992260;28;20022;-85
2024/01/15 10:21:10;;;;;;;1.70;0.70;;;;;;;1.14;100.00;99958.31;4994119;28;20042;-87
2024/01/15 10:23:38;;;;;;;4.43;0.70;;;;;;;1.15;100.00;99959.19;4960656;28;20031;-90
2024/01/15 10:26:05;;;;;;;2.20;0.30;;;;;;;1.26;100.00;99965.75;4961680;28;20090;-89
2024/01/15 10:28:31;;;;;;;3.97;0.70;;;;;;;1.32;100.00;99955.59;4993024;28;20041;-90
2024/01/15 10:31:01;;;;;;;0.90;0.60;;;;;;;1.40;100.00;99953.34;4977594;28;20538;-90
2024/01/15 10:33:27;;;;;;;2.50;0.50;;;;;;;1.51;100.00;99960.81;4977512;28;20065;-87
2024/01/15 10:35:59;;;;;;;3.83;0.60;;;;;;;1.61;100.00;99954.81;4991937;28;20039;-87
2024/01/15 10:38:25;;;;;;;4.43;0.60;;;;;;;1.69;100.00;99959.78;4976677;28;20133;-87
2024/01/15 10:40:54;;;;;;;4.88;0.82;;;;;;;2.04;100.00;99956.88;4991969;28;20113;-88
2024/01/15 10:43:20;;;;;;;3.92;0.88;;;;;;;2.06;100.00;99952.25;4992297;28;20038;-89
2024/01/15 10:45:47;;;;;;;3.47;0.57;;;;;;;2.06;100.00;99962.19;4992312;28;20036;-88
2024/01/15 10:48:13;;;;;;;3.22;0.60;;;;;;;2.16;100.00;99955.28;4993325;28;20031;-88
2024/01/15 10:50:39;;;;;;;3.00;0.85;;;;;;;2.17;100.00;99968.69;4976468;28;20034;-92
2024/01/15 10:53:06;;;;;;;3.05;0.63;;;;;;;2.07;100.00;99967.50;4992988;28;20022;-90
2024/01/15 10:55:33;;;;;;;2.63;0.60;;;;;;;2.17;100.00;99955.19;4994464;28;20033;-92
2024/01/15 10:58:00;;;;;;;4.45;0.90;;;;;;;2.19;100.00;99957.78;4979222;28;20030;-91
2024/01/15 11:00:26;;;;;;;2.85;0.77;;;;;;;2.01;100.00;99959.75;4962168;28;20034;-93
2024/01/15 11:02:55;;;;;;;6.03;1.00;;;;;;;1.96;100.00;99964.53;4994770;28;20034;-90
2024/01/15 11:05:22;;;;;;;2.90;1.20;;;;;;;2.08;100.00;99954.84;4977383;28;20054;-89
2024/01/15 11:07:54;;;;;;;2.53;1.00;;;;;;;2.26;100.00;99959.16;4994003;28;20026;-89
2024/01/15 11:10:43;;;;;;;1.88;0.82;;;;;;;2.11;100.00;99954.69;4993282;28;20030;-89
2024/01/15 11:13:10;;;;;;;1.63;1.13;;;;;;;2.06;100.00;99962.19;4993314;28;20019;-87
2024/01/15 11:16:00;;;;;;;2.22;1.20;;;;;;;1.94;100.00;99956.53;4960249;28;20430;-92
2024/01/15 11:18:57;;;;;;;3.47;1.25;;;;;;;1.86;100.00;99963.34;4992490;28;20026;-90
2024/01/15 11:21:29;;;;;;;3.90;1.45;;;;;;;1.80;100.00;99965.44;4990977;28;20117;-89
2024/01/15 11:23:56;;;;;;;4.15;1.02;;;;;;;1.79;100.00;99949.34;4960902;28;20037;-87
2024/01/15 11:26:47;;;;;;;1.55;1.38;;;;;;;1.89;100.00;99953.25;4992613;28;20072;-89
2024/01/15 11:29:27;;;;;;;2.15;1.20;;;;;;;1.83;100.00;99956.28;4988200;28;20054;-86
2024/01/15 11:32:09;;;;;;;2.28;1.27;;;;;;;1.84;100.00;99967.00;4991725;28;20430;-88
2024/01/15 11:34:56;;;;;;;2.25;1.35;;;;;;;1.86;100.00;99961.50;4986579;28;20034;-85
2024/01/15 11:37:23;;;;;;;3.25;1.38;;;;;;;1.87;100.00;99959.66;4990681;28;20404;-89
2024/01/15 11:39:52;;;;;;;4.40;1.42;;;;;;;2.23;100.00;99959.38;4960070;28;20042;-88
2024/01/15 11:42:20;;;;;;;5.93;1.48;;;;;;;2.35;100.00;99968.56;4975475;28;20079;-87